• Join FlightAware (Why Join?)
  • Login
  • US Flag 
09:47AM EDT


 

Airport Tracker/Info


-or-


 

Live Flight TrackerFlight Track Log ✈ EJA808 ✈ 02-May-2013 ✈ KMQS - KMDW

Flight Track Log - Related Links

Times and Time Zones

All times are in EDT time to prevent confusion due to time zone crossing. See the EJA808 flight status page for this flight to view local times or setup timezone preferences in your user account.

Time Position Orientation Groundspeed Altitude Reporting Facility
EDT Latitude Longitude Course Direction KTS MPH feet Rate Location/Type
10:04AM 39.9667 -75.8500 90° East 206 237 1,900  Level Philadelphia TRACON
10:05AM 39.9667 -75.7667 90° East 192 221 4,500 1,380 Climbing Philadelphia TRACON
10:06AM 39.9586 -75.6917 98° East 191 220 5,100 1,260 Climbing New York Center
10:07AM 39.9617 -75.6242 87° East 209 241 7,000 1,440 Climbing New York Center
10:08AM 39.9625 -75.5511 89° East 204 235 8,000 660 Climbing New York Center
10:09AM 39.9775 -75.4872 73° East 193 222 8,400 900 Climbing New York Center
10:10AM 40.0128 -75.4406 45° Northeast 185 213 9,900 1,020 Climbing New York Center
10:11AM 40.0644 -75.3981 32° Northeast 203 234 10,500 1,140 Climbing New York Center
10:12AM 40.1197 -75.4208 343° North 203 234 12,300 1,200 Climbing New York Center
10:13AM 40.1803 -75.4736 326° Northwest 240 276 13,000 660 Climbing New York Center
10:14AM 40.2306 -75.5722 304° West 292 336 13,700 1,620 Climbing New York Center
10:15AM 40.2894 -75.6581 312° West 317 365 16,300 2,280 Climbing New York Center
10:16AM 40.3503 -75.7522 310° West 330 380 18,200 1,800 Climbing New York Center
10:17AM 40.4092 -75.8381 312° West 342 394 19,900 1,860 Climbing New York Center
10:18AM 40.4536 -75.9642 295° West 350 403 22,000 1,920 Climbing New York Center
10:19AM 40.4728 -76.0939 281° West 360 414 23,800 1,740 Climbing New York Center
10:20AM 40.4958 -76.2267 283° West 373 429 25,500 1,620 Climbing New York Center
10:21AM 40.5153 -76.3511 282° West 385 443 27,100 1,680 Climbing New York Center
10:22AM 40.5369 -76.5058 280° West 385 443 28,900 1,620 Climbing New York Center
10:23AM 40.5558 -76.6275 282° West 385 443 30,400 1,740 Climbing New York Center
10:24AM 40.5775 -76.7797 281° West 390 449 32,500 1,860 Climbing New York Center
10:25AM 40.5975 -76.9156 281° West 390 449 34,300 1,620 Climbing New York Center
10:26AM 40.6142 -77.0372 280° West 385 443 35,800 1,740 Climbing New York Center
10:27AM 40.6353 -77.1869 281° West 373 429 37,800 1,680 Climbing New York Center
10:28AM 40.6497 -77.3033 279° West 373 429 39,200 1,080 Climbing New York Center
10:29AM 40.6697 -77.4311 282° West 373 429 40,000 240 Climbing New York Center
10:31AM 40.7061 -77.7017 280° West 408 470 40,000  Level Cleveland Center
10:32AM 40.7244 -77.8514 279° West 414 476 40,000  Level Cleveland Center
10:33AM 40.7469 -78.0042 281° West 420 483 40,000  Level Cleveland Center
10:34AM 40.7647 -78.1514 279° West 420 483 40,000  Level Cleveland Center
10:35AM 40.7844 -78.3014 280° West 425 489 40,000  Level Cleveland Center
10:36AM 40.8039 -78.4464 280° West 420 483 40,000  Level Cleveland Center
10:37AM 40.8192 -78.5911 278° West 413 475 40,000  Level Cleveland Center
10:38AM 40.8403 -78.7361 281° West 407 468 40,000  Level Cleveland Center
10:39AM 40.8614 -78.8808 281° West 407 468 40,000  Level Cleveland Center
10:40AM 40.8800 -79.0286 280° West 407 468 40,000  Level Cleveland Center
10:41AM 40.8986 -79.1794 279° West 413 475 40,000  Level Cleveland Center
10:42AM 40.9150 -79.3275 278° West 413 475 40,000  Level Cleveland Center
10:43AM 40.9356 -79.4947 279° West 413 475 40,000  Level Cleveland Center
10:44AM 40.9533 -79.6400 279° West 413 475 40,000  Level Cleveland Center
10:45AM 40.9711 -79.7828 279° West 408 470 40,000  Level Cleveland Center
10:46AM 40.9867 -79.9283 278° West 408 470 40,000  Level Cleveland Center
10:47AM 41.0042 -80.0769 279° West 408 470 40,000  Level Cleveland Center
10:48AM 41.0233 -80.2253 280° West 408 470 40,000  Level Cleveland Center
10:49AM 41.0383 -80.3683 278° West 408 470 40,000  Level Cleveland Center
10:50AM 41.0553 -80.5169 279° West 408 470 40,000  Level Cleveland Center
10:51AM 41.0697 -80.6631 278° West 408 470 40,000  Level Cleveland Center
10:52AM 41.0864 -80.8089 279° West 408 470 40,000  Level Cleveland Center
10:53AM 41.1025 -80.9550 278° West 408 470 40,000  Level Cleveland Center
10:54AM 41.1125 -81.0875 276° West 414 476 40,000  Level Cleveland Center
10:55AM 41.1283 -81.2392 278° West 414 476 40,000  Level Cleveland Center
10:56AM 41.1442 -81.3828 278° West 403 464 40,000  Level Cleveland Center
10:57AM 41.1639 -81.5456 279° West 408 470 40,000  Level Cleveland Center
10:58AM 41.1769 -81.6922 277° West 408 470 40,000  Level Cleveland Center
10:59AM 41.1922 -81.8386 278° West 408 470 40,000  Level Cleveland Center
11:00AM 41.2072 -81.9853 278° West 408 470 40,000  Level Cleveland Center
11:01AM 41.2158 -82.1206 275° West 408 470 40,000  Level Cleveland Center
11:02AM 41.2306 -82.2644 278° West 407 468 40,000  Level Cleveland Center
11:03AM 41.2450 -82.4114 277° West 407 468 40,000  Level Cleveland Center
11:04AM 41.2592 -82.5525 278° West 401 461 40,000  Level Cleveland Center
11:05AM 41.2692 -82.6994 275° West 401 461 40,000  Level Cleveland Center
11:06AM 41.2847 -82.8600 277° West 401 461 40,000  Level Cleveland Center
11:07AM 41.2983 -83.0125 277° West 411 473 40,000  Level Cleveland Center
11:08AM 41.3097 -83.1594 276° West 406 467 40,000  Level Cleveland Center
11:09AM 41.3214 -83.2900 277° West 406 467 40,000  Level Cleveland Center
11:10AM 41.3344 -83.4372 277° West 406 467 40,000  Level Cleveland Center
11:11AM 41.3472 -83.5897 276° West 406 467 40,000  Level Cleveland Center
11:12AM 41.3597 -83.7372 276° West 406 467 40,000  Level Cleveland Center
11:13AM 41.3703 -83.8842 276° West 406 467 40,000 -1,200 Level Cleveland Center
11:16AM 41.4000 -84.2278 277° West 394 453 36,000 -2,040 Descending Chicago Center
11:17AM 41.4117 -84.3769 276° West 404 465 33,200 -2,760 Descending Chicago Center
11:18AM 41.4244 -84.5344 276° West 426 490 30,400 -1,560 Descending Chicago Center
11:19AM 41.4353 -84.6894 275° West 423 487 30,000 -240 Descending Chicago Center
11:20AM 41.4486 -84.8772 275° West 424 488 30,000 -540 Level Chicago Center
11:21AM 41.4600 -85.0367 275° West 430 495 28,900 -1,440 Descending Chicago Center
11:22AM 41.4711 -85.1936 275° West 426 490 27,100 -1,860 Descending Chicago Center
11:23AM 41.4800 -85.3472 274° West 414 476 25,100 -1,980 Descending Chicago Center
11:24AM 41.4903 -85.4997 275° West 406 467 23,100 -2,040 Descending Chicago Center
11:25AM 41.5003 -85.6478 275° West 399 459 21,000 -2,040 Descending Chicago Center
11:26AM 41.5097 -85.7906 275° West 388 447 18,900 -2,100 Descending Chicago Center
11:27AM 41.5186 -85.9250 275° West 371 427 16,700 -2,160 Descending Chicago Center
11:28AM 41.5244 -86.0614 273° West 367 422 14,500 -2,400 Descending Chicago Center
11:29AM 41.5233 -86.2186 270° West 351 404 11,900 -2,220 Descending Chicago Center
11:30AM 41.5222 -86.3456 269° West 344 396 10,000 -960 Descending Chicago Center
11:31AM 41.5217 -86.4714 270° West 340 391 10,000  Level Chicago Center
11:32AM 41.5197 -86.5981 269° West 342 394 10,000  Level Chicago Center
11:33AM 41.5208 -86.7189 271° West 341 392 10,000 -300 Level Chicago Center
11:34AM 41.5208 -86.8583 270° West 310 357 9,500 -1,080 Descending Chicago Center
11:35AM 41.5189 -86.9658 269° West 291 335 7,900 -1,500 Descending Chicago Center
11:36AM 41.5161 -87.0706 268° West 285 328 6,500 -1,020 Descending Chicago Center
11:37AM 41.5167 -87.1500 271° West 274 315 6,100 -780 Descending Chicago TRACON
11:38AM 41.5167 -87.2500 270° West 274 315 5,200 -1,020 Descending Chicago TRACON
11:39AM 41.5333 -87.3500 283° West 268 308 4,100 -780 Descending Chicago TRACON
11:39AM 41.5397 -87.3883 283° West 271 312 4,100  Level Chicago Center
11:40AM 41.5486 -87.4858 277° West 269 310 4,100  Level Chicago Center
11:41AM 41.5581 -87.5844 277° West 269 310 4,100 -60 Level Chicago Center
11:42AM 41.5717 -87.6811 281° West 273 314 4,000 -540 Descending Chicago Center
11:43AM 41.6156 -87.7569 308° West 266 306 3,100 -660 Descending Chicago Center
11:44AM 41.6333 -87.7833 312° West 238 274 3,100 -240 Level Chicago TRACON
11:45AM 41.6833 -87.8167 334° Northwest 194 223 2,800 -480 Descending Chicago TRACON
11:46AM 41.7333 -87.8167 360° North 187 215 2,200 -720 Descending Chicago TRACON
11:47AM 41.7667 -87.7833 37° Northeast 125 144 1,500 -720 Descending Chicago TRACON
11:50AM 41.7833 -87.7500 334° Northwest  Level FlightAware Approximate